KOA - Ellison Onizuka Kona Intl At Keahole

Pirep is a free, collaborative database of all public and private airports located within the United States. All pilots are welcome to contribute, edit, and improve any airport they have local knowledge about, no registration required.
Uploaded photos will be licensed under a CC BY-SA 4.0 license. Please only upload photos you have the rights to use.
Tags
Public
Car Rental
METAR / TAF
Edit Tags
Food
Camping
Lodging
Bicycles
Swimming
Golfing
Fishing
Hot Springs
Museum
Flying Clubs
Airpark
Upcoming Events
No upcoming events. Is anything happening here soon?
*
*
*

Where exactly on/near the airport is this event taking place?

Is there a webpage with more information for this event?

Who should be contacted for more information?

What is this event all about?

Repeat every
Description
Last updated: 2023-12-08 13:56:27 HST
Transient Parking
Fuel Location
Last updated: 2023-12-08 13:56:27 HST
Landing & Tie-down Fees
Crew Car Availability
Flying Clubs
WiFi Access
Airport Statistics
Location: Kailua/Kona, HI
Elevation: 48ft
Sectional: Hawaiian Islands
Activation date: Jan 1971
Fuel: 100, A (prices)
Runway 17/35: 11,000ft
Access: Open to the public
Current Weather — VFR
  • Weather data is strictly informational and not for flight planning purposes.
  • METAR
    2024-04-24 05:53:00 HST
    Ceiling Wind Temperature Dewpoint Weather Visbility
    5,000ft 170° @ 4kt 73°F 68°F N/A 10SM
    Clouds: Few @ 1,800ft, Broken @ 5,000ft
    Raw: PHKO 241553Z 17004KT 10SM FEW018 BKN050 23/20 A3008 RMK AO2 SLP183 T02330200
  • TAF
    2024-04-24 02:00:00 HST – 2024-04-24 10:00:00 HST
    Ceiling Wind Weather Visbility
    Sky clear 150° @ 10kt N/A 6SM
    Clouds: Few @ 2,500ft, Scattered @ 5,000ft
    Raw: PHKO 241120Z 2412/2512 15010KT P6SM FEW025 SCT050 FM242000 23010KT P6SM VCSH BKN050 FM250700 13011KT P6SM SCT020 OVC050
  • TAF
    2024-04-24 10:00:00 HST – 2024-04-24 21:00:00 HST
    Ceiling Wind Weather Visbility
    5,000ft 230° @ 10kt Showers in vicinity 6SM
    Clouds: Broken @ 5,000ft
    Raw: PHKO 241120Z 2412/2512 15010KT P6SM FEW025 SCT050 FM242000 23010KT P6SM VCSH BKN050 FM250700 13011KT P6SM SCT020 OVC050
  • TAF
    2024-04-24 21:00:00 HST – 2024-04-25 02:00:00 HST
    Ceiling Wind Weather Visbility
    5,000ft 130° @ 11kt N/A 6SM
    Clouds: Scattered @ 2,000ft, Overcast @ 5,000ft
    Raw: PHKO 241120Z 2412/2512 15010KT P6SM FEW025 SCT050 FM242000 23010KT P6SM VCSH BKN050 FM250700 13011KT P6SM SCT020 OVC050
Click/tap to add an annotation marker to the map
Airport Webcams
No webcams added yet.
Direct links to live image URLs will be displayed inline on this page. URLs to separate webpages will be linked to.
URL:
Direct links to live image URLs will be displayed inline on this page. URLs to separate webpages will be linked to.
URL:
Remarks
  • This airport has been surveyed by the national geodetic survey.
  • Tpa small acft 800' msl; large acft 1500' msl.
  • Req four eng acft taxi with outboard engs at idle due narrow twys.
  • All helicopters confine opns to paved areas.
  • Ppr fm amgr for transient parking call 808-327-9520.
Comments
Leave a comment What was your experience like at this airport?